Time;durP1;ratioP1;P1;durP2;ratioP2;P2;SDS_P1;SDS_P2;PMS_P1;PMS_P2;Temp;Humidity;BMP_temperature;BMP_pressure;BME280_temperature;BME280_humidity;BME280_pressure;Samples;Min_cycle;Max_cycle;Signal;HPM_P1;HPM_P2
2022/01/02 00:01:19;;;;;;;5.68;2.03;;;;;;;19.28;58.61;101724.94;5014367;28;20081;-64
2022/01/02 00:03:49;;;;;;;6.30;2.10;;;;;;;19.28;58.40;101730.22;5014213;28;20049;-63
2022/01/02 00:06:30;;;;;;;5.72;2.08;;;;;;;19.26;58.39;101726.84;5013771;28;20053;-64
2022/01/02 00:09:05;;;;;;;6.28;2.15;;;;;;;19.23;58.55;101741.13;5014244;28;20022;-63
2022/01/02 00:11:37;;;;;;;8.38;2.08;;;;;;;19.21;58.60;101751.81;5014149;28;20106;-63
2022/01/02 00:14:08;;;;;;;6.00;2.30;;;;;;;19.22;58.28;101752.66;5013573;28;20037;-63
2022/01/02 00:16:35;;;;;;;5.60;1.92;;;;;;;19.20;58.51;101754.56;5014126;28;20022;-63
2022/01/02 00:19:08;;;;;;;5.45;2.35;;;;;;;19.17;58.55;101755.63;5014115;28;20111;-64
2022/01/02 00:21:38;;;;;;;4.57;1.92;;;;;;;19.16;58.43;101750.47;5013989;28;20049;-63
2022/01/02 00:24:06;;;;;;;5.65;2.13;;;;;;;19.16;58.29;101750.47;5014251;28;20385;-63
2022/01/02 00:26:38;;;;;;;5.38;2.10;;;;;;;19.16;58.42;101759.22;5013368;28;20080;-63
2022/01/02 00:29:08;;;;;;;6.38;2.50;;;;;;;19.14;58.59;101742.66;5013233;28;20489;-63
2022/01/02 00:31:34;;;;;;;5.50;2.08;;;;;;;19.12;58.48;101738.41;5013567;28;20044;-64
2022/01/02 00:34:02;;;;;;;7.07;1.98;;;;;;;19.12;58.35;101731.34;5013099;28;20018;-64
2022/01/02 00:36:27;;;;;;;5.03;2.00;;;;;;;19.10;58.44;101727.94;5014220;28;20022;-64
2022/01/02 00:38:53;;;;;;;4.63;2.15;;;;;;;19.10;58.49;101724.47;5013548;28;20029;-64
2022/01/02 00:41:25;;;;;;;5.30;1.95;;;;;;;19.09;58.78;101738.63;5013146;28;20529;-64
2022/01/02 00:44:13;;;;;;;5.43;2.28;;;;;;;19.08;58.67;101742.25;5013510;28;20034;-64
2022/01/02 00:46:51;;;;;;;6.82;2.40;;;;;;;19.07;58.63;101738.72;5013407;28;20030;-65
2022/01/02 00:49:20;;;;;;;4.43;2.42;;;;;;;19.05;58.58;101734.53;5013020;28;20454;-64
2022/01/02 00:52:17;;;;;;;6.05;2.05;;;;;;;19.05;58.60;101737.19;5013482;28;20117;-64
2022/01/02 00:54:45;;;;;;;5.50;1.90;;;;;;;19.03;58.79;101743.41;5012754;28;20390;-64
2022/01/02 00:57:16;;;;;;;5.65;2.33;;;;;;;19.02;58.89;101727.66;5013168;28;20164;-64
2022/01/02 01:00:07;;;;;;;4.82;2.00;;;;;;;19.02;58.92;101722.38;5013412;28;20022;-64
2022/01/02 01:02:38;;;;;;;5.03;2.03;;;;;;;19.01;58.98;101718.06;5012507;28;20060;-63
2022/01/02 01:05:05;;;;;;;5.53;2.00;;;;;;;18.99;58.95;101719.94;5013349;28;20033;-63
2022/01/02 01:07:32;;;;;;;6.25;2.10;;;;;;;18.97;59.03;101717.41;5013059;28;20083;-64
2022/01/02 01:09:58;;;;;;;5.22;2.10;;;;;;;18.95;59.22;101703.47;5012679;28;20033;-63
2022/01/02 01:12:24;;;;;;;5.03;1.85;;;;;;;18.94;59.25;101699.16;5013337;28;20029;-63
2022/01/02 01:14:51;;;;;;;5.25;1.75;;;;;;;18.95;59.22;101698.19;5013029;28;20049;-63
2022/01/02 01:17:16;;;;;;;7.20;2.45;;;;;;;18.94;59.26;101707.06;5012518;28;20504;-63
2022/01/02 01:19:43;;;;;;;5.35;1.92;;;;;;;18.93;59.34;101697.47;5012925;28;20034;-63
2022/01/02 01:22:08;;;;;;;4.35;1.98;;;;;;;18.93;59.19;101686.91;5012608;28;20119;-63
2022/01/02 01:24:36;;;;;;;6.85;2.17;;;;;;;18.91;59.38;101691.44;5012024;28;20049;-64
2022/01/02 01:27:08;;;;;;;5.80;2.47;;;;;;;18.91;59.34;101695.88;5013089;28;20116;-63
2022/01/02 01:29:34;;;;;;;5.40;2.20;;;;;;;18.90;59.19;101695.06;5012635;28;20116;-63
2022/01/02 01:32:04;;;;;;;7.13;2.05;;;;;;;18.89;59.35;101677.50;5012162;28;20022;-63
2022/01/02 01:34:30;;;;;;;4.18;2.05;;;;;;;18.89;59.46;101681.94;5012668;28;20037;-63
2022/01/02 01:36:56;;;;;;;5.50;2.15;;;;;;;18.88;59.46;101677.63;5013132;28;20030;-63
2022/01/02 01:39:21;;;;;;;6.57;2.15;;;;;;;18.86;59.46;101672.44;5012315;28;20033;-63
2022/01/02 01:41:48;;;;;;;4.45;1.90;;;;;;;18.85;59.68;101671.59;5012638;28;20061;-63
2022/01/02 01:46:39;;;;;;;6.40;2.20;;;;;;;18.84;59.45;101669.91;5012633;28;20057;-63
2022/01/02 01:49:15;;;;;;;5.00;2.38;;;;;;;18.82;59.58;101666.50;5012744;28;20048;-63
2022/01/02 01:51:41;;;;;;;5.68;2.10;;;;;;;18.82;59.72;101642.75;5011979;28;20058;-63
2022/01/02 01:54:07;;;;;;;6.45;1.98;;;;;;;18.78;59.82;101637.78;5013041;28;20030;-63
2022/01/02 01:56:32;;;;;;;6.83;2.20;;;;;;;18.81;59.22;101661.34;5012661;28;20031;-63
2022/01/02 01:58:57;;;;;;;6.10;2.22;;;;;;;18.80;59.30;101655.22;5012110;28;20362;-63
2022/01/02 02:01:23;;;;;;;4.47;1.93;;;;;;;18.79;59.52;101640.31;5013393;28;20042;-64
2022/01/02 02:03:48;;;;;;;5.43;2.20;;;;;;;18.79;59.67;101645.59;5012950;28;20313;-64
2022/01/02 02:06:13;;;;;;;4.70;2.15;;;;;;;18.78;59.68;101637.78;5013223;28;20034;-63
2022/01/02 02:08:39;;;;;;;6.03;2.13;;;;;;;18.75;59.62;101623.00;5013563;28;20041;-63
2022/01/02 02:11:04;;;;;;;4.38;1.80;;;;;;;18.75;59.59;101625.63;5014403;28;20291;-63
2022/01/02 02:13:29;;;;;;;5.60;2.17;;;;;;;18.76;59.73;101615.94;5013278;28;20037;-63
2022/01/02 02:15:55;;;;;;;6.50;2.33;;;;;;;18.75;59.52;101616.88;5014694;28;20030;-64
2022/01/02 02:18:20;;;;;;;5.32;2.00;;;;;;;18.74;59.63;101601.97;5017348;28;20294;-64
2022/01/02 02:20:45;;;;;;;6.18;2.20;;;;;;;18.73;59.83;101603.78;5019826;28;20021;-63
2022/01/02 02:23:13;;;;;;;5.80;2.17;;;;;;;18.73;59.70;101595.88;5023552;28;20025;-63
2022/01/02 02:25:40;;;;;;;5.43;2.10;;;;;;;18.72;59.67;101593.34;5024781;28;20292;-63
2022/01/02 02:28:09;;;;;;;5.80;2.05;;;;;;;18.73;59.64;101600.31;5024777;28;20026;-64
2022/01/02 02:30:37;;;;;;;6.50;2.08;;;;;;;18.71;59.69;101587.22;5026521;28;20049;-64
2022/01/02 02:33:05;;;;;;;7.32;2.45;;;;;;;18.71;59.78;101579.28;5026480;28;20033;-63
2022/01/02 02:35:33;;;;;;;6.72;1.90;;;;;;;18.70;59.80;101590.81;5024300;28;20030;-63
2022/01/02 02:37:59;;;;;;;5.07;2.05;;;;;;;18.67;59.73;101599.81;5016515;28;20022;-63
2022/01/02 02:40:27;;;;;;;4.88;2.15;;;;;;;18.66;59.83;101590.19;5016059;28;20096;-64
2022/01/02 02:42:57;;;;;;;4.65;2.20;;;;;;;18.69;59.78;101589.09;5016043;28;20052;-64
2022/01/02 02:51:20;;;;;;;7.22;2.03;;;;;;;18.65;59.95;101561.25;5015942;28;20056;-64
2022/01/02 02:53:46;;;;;;;5.28;2.30;;;;;;;18.64;59.80;101564.84;5015796;28;20111;-64
2022/01/02 02:56:17;;;;;;;4.28;1.80;;;;;;;18.63;59.76;101564.00;5015409;28;20026;-63
2022/01/02 02:58:43;;;;;;;5.03;2.17;;;;;;;18.63;59.86;101557.88;5015737;28;20037;-63
2022/01/02 03:01:11;;;;;;;4.65;2.03;;;;;;;18.63;59.85;101563.16;5015770;28;20038;-63
2022/01/02 03:03:37;;;;;;;5.55;1.90;;;;;;;18.62;59.84;101561.47;5014621;28;20076;-64
2022/01/02 03:06:02;;;;;;;4.13;1.92;;;;;;;18.62;59.80;101566.75;5015498;28;20027;-63
2022/01/02 03:08:28;;;;;;;5.30;2.22;;;;;;;18.62;59.84;101558.84;5015797;28;20034;-63
2022/01/02 03:10:53;;;;;;;6.38;2.38;;;;;;;18.61;59.72;101559.78;5014402;28;20485;-64
2022/01/02 03:13:18;;;;;;;6.85;1.95;;;;;;;18.59;59.83;101546.69;5015547;28;20076;-64
2022/01/02 03:15:47;;;;;;;4.78;2.13;;;;;;;18.61;59.86;101549.22;5014408;28;20022;-63
2022/01/02 03:18:12;;;;;;;6.35;2.20;;;;;;;18.60;60.08;101550.19;5015346;28;20125;-63
2022/01/02 03:20:37;;;;;;;6.60;2.05;;;;;;;18.59;59.63;101551.97;5014813;28;20062;-63
2022/01/02 03:23:02;;;;;;;4.95;1.90;;;;;;;18.58;59.98;101557.34;5014638;28;20034;-63
2022/01/02 03:25:28;;;;;;;5.22;2.10;;;;;;;18.58;59.95;101555.59;5015201;28;20073;-63
2022/01/02 03:27:53;;;;;;;6.17;2.50;;;;;;;18.57;60.04;101545.13;5014922;28;20573;-63
2022/01/02 03:30:21;;;;;;;6.07;2.03;;;;;;;18.57;60.05;101550.41;5014440;28;20295;-63
2022/01/02 03:32:46;;;;;;;5.82;2.22;;;;;;;18.57;59.93;101559.16;5014827;28;20298;-64
2022/01/02 03:35:11;;;;;;;4.33;2.00;;;;;;;18.57;59.90;101555.69;5014957;28;20097;-63
2022/01/02 03:37:40;;;;;;;4.95;1.90;;;;;;;18.56;60.10;101559.28;5014142;28;20393;-64
2022/01/02 03:40:07;;;;;;;8.02;2.40;;;;;;;18.56;59.75;101559.28;5015009;28;20029;-63
2022/01/02 03:42:34;;;;;;;5.30;2.03;;;;;;;18.54;59.83;101559.38;5014570;28;20371;-63
2022/01/02 03:45:00;;;;;;;6.13;1.95;;;;;;;18.54;59.90;101548.00;5013787;28;20092;-63
2022/01/02 03:47:25;;;;;;;5.90;2.30;;;;;;;18.54;59.78;101542.72;5015006;28;20065;-63
2022/01/02 03:49:50;;;;;;;5.18;1.95;;;;;;;18.54;60.04;101540.06;5014471;28;20021;-64
2022/01/02 03:52:15;;;;;;;7.03;2.20;;;;;;;18.52;59.71;101534.91;5014137;28;20034;-63
2022/01/02 03:54:41;;;;;;;7.70;2.17;;;;;;;18.52;59.82;101524.34;5014631;28;20278;-64
2022/01/02 03:57:06;;;;;;;4.70;2.00;;;;;;;18.51;59.83;101525.28;5014851;28;20037;-64
2022/01/02 03:59:31;;;;;;;6.57;1.95;;;;;;;18.51;60.08;101532.38;5013657;28;20033;-64
2022/01/02 04:02:00;;;;;;;5.30;2.20;;;;;;;18.52;59.90;101515.56;5013366;28;20114;-63
2022/01/02 04:04:26;;;;;;;7.35;2.60;;;;;;;18.49;59.96;101509.56;5014470;28;20773;-63
2022/01/02 04:06:52;;;;;;;5.65;2.20;;;;;;;18.50;59.96;101497.22;5013677;28;20025;-64
2022/01/02 04:09:17;;;;;;;5.97;2.33;;;;;;;18.51;60.11;101496.25;5014569;28;20133;-64
2022/01/02 04:11:42;;;;;;;6.47;2.85;;;;;;;18.49;60.04;101496.38;5014075;28;20029;-64
2022/01/02 04:14:10;;;;;;;5.28;1.98;;;;;;;18.48;59.97;101494.69;5013913;28;20104;-64
2022/01/02 04:16:36;;;;;;;4.88;2.13;;;;;;;18.49;60.30;101499.00;5014077;28;20036;-64
2022/01/02 04:19:01;;;;;;;6.40;2.30;;;;;;;18.48;59.92;101491.19;5013522;28;20029;-64
2022/01/02 04:21:26;;;;;;;5.30;2.05;;;;;;;18.45;59.87;101494.06;5014393;28;20026;-64
2022/01/02 04:23:52;;;;;;;5.50;2.03;;;;;;;18.47;60.28;101494.81;5014162;28;20509;-64
2022/01/02 04:26:18;;;;;;;5.15;2.10;;;;;;;18.46;59.97;101495.75;5013370;28;20515;-64
2022/01/02 04:28:43;;;;;;;5.45;2.00;;;;;;;18.46;59.83;101501.03;5013929;28;20057;-64
2022/01/02 04:31:10;;;;;;;7.80;2.47;;;;;;;18.45;60.07;101496.69;5014082;28;20120;-68
2022/01/02 04:33:36;;;;;;;4.95;1.98;;;;;;;18.44;60.12;101487.94;5012921;28;20355;-64
2022/01/02 04:36:01;;;;;;;8.05;2.20;;;;;;;18.44;59.95;101487.94;5014135;28;20022;-64
2022/01/02 04:38:27;;;;;;;6.03;2.15;;;;;;;18.43;60.04;101485.41;5014096;28;20034;-64
2022/01/02 04:40:55;;;;;;;5.00;2.00;;;;;;;18.44;60.15;101485.31;5012968;28;20061;-64
2022/01/02 04:43:20;;;;;;;6.32;2.05;;;;;;;18.44;59.99;101479.19;5013826;28;20076;-64
2022/01/02 04:45:45;;;;;;;5.87;2.40;;;;;;;18.38;60.07;101461.16;5013415;28;20030;-64
2022/01/02 04:48:11;;;;;;;6.32;2.10;;;;;;;18.42;60.00;101463.47;5013022;28;20273;-64
2022/01/02 04:50:36;;;;;;;4.85;2.00;;;;;;;18.42;60.12;101450.28;5013477;28;20433;-64
2022/01/02 04:53:01;;;;;;;4.70;1.80;;;;;;;18.40;59.87;101446.88;5013531;28;20018;-64
2022/01/02 04:55:27;;;;;;;6.28;1.90;;;;;;;18.41;59.96;101437.19;5012904;28;20045;-64
2022/01/02 04:57:52;;;;;;;6.97;2.23;;;;;;;18.41;60.06;101431.91;5012475;28;20029;-64
2022/01/02 05:00:17;;;;;;;5.68;1.95;;;;;;;18.40;60.35;101419.66;5013714;28;20759;-63
2022/01/02 05:02:42;;;;;;;8.25;2.15;;;;;;;18.40;60.16;101407.28;5012262;28;20038;-64
2022/01/02 05:05:08;;;;;;;5.47;1.93;;;;;;;18.39;60.31;101403.00;5013319;28;20034;-64
2022/01/02 05:07:33;;;;;;;4.47;1.85;;;;;;;18.38;60.08;101388.09;5013368;28;20301;-65
2022/01/02 05:09:59;;;;;;;4.43;1.80;;;;;;;18.39;59.99;101395.06;5012620;28;20367;-64
2022/01/02 05:12:25;;;;;;;6.03;2.20;;;;;;;18.39;60.38;101391.56;5013379;28;20030;-63
2022/01/02 05:14:50;;;;;;;4.60;1.67;;;;;;;18.39;60.08;101381.00;5013109;28;20041;-63
2022/01/02 05:17:15;;;;;;;4.85;1.83;;;;;;;18.37;60.13;101378.50;5012207;28;20038;-63
2022/01/02 05:19:40;;;;;;;5.40;2.00;;;;;;;18.38;59.98;101379.34;5012895;28;20025;-63
2022/01/02 05:22:06;;;;;;;5.67;1.90;;;;;;;18.37;59.98;101383.75;5013330;28;20040;-63
2022/01/02 05:24:31;;;;;;;5.93;2.03;;;;;;;18.36;59.91;101378.59;5012106;28;20619;-63
2022/01/02 05:26:56;;;;;;;5.60;2.03;;;;;;;18.36;60.07;101373.31;5013196;28;20268;-63
2022/01/02 05:29:22;;;;;;;5.78;2.00;;;;;;;18.36;60.10;101365.41;5012565;28;20065;-63
2022/01/02 05:31:48;;;;;;;5.63;1.77;;;;;;;18.34;60.20;101355.00;5012678;28;20030;-63
2022/01/02 05:34:13;;;;;;;6.03;2.25;;;;;;;18.33;60.02;101357.75;5013223;28;20429;-63
2022/01/02 05:36:39;;;;;;;6.10;2.25;;;;;;;18.34;60.04;101362.03;5012164;28;20030;-63
2022/01/02 05:39:04;;;;;;;6.45;1.83;;;;;;;18.33;60.15;101353.31;5013403;28;20030;-63
2022/01/02 05:41:31;;;;;;;5.70;2.38;;;;;;;18.32;60.13;101348.97;5012609;28;20029;-63
2022/01/02 05:43:57;;;;;;;6.85;1.90;;;;;;;18.32;60.17;101346.31;5012329;28;20037;-63
2022/01/02 05:46:28;;;;;;;5.40;1.85;;;;;;;18.31;60.06;101339.38;5013029;28;20046;-63
2022/01/02 05:48:53;;;;;;;5.03;2.22;;;;;;;18.31;60.09;101348.13;5012525;28;20538;-64
2022/01/02 05:51:18;;;;;;;5.85;2.00;;;;;;;18.31;60.12;101340.22;5012377;28;20110;-64
2022/01/02 05:53:43;;;;;;;5.57;1.95;;;;;;;18.30;60.20;101319.22;5012829;28;20033;-64
2022/01/02 05:56:09;;;;;;;5.05;1.70;;;;;;;18.29;60.06;101312.25;5013092;28;20018;-63
2022/01/02 05:58:34;;;;;;;4.63;1.98;;;;;;;18.30;60.21;101306.03;5011780;28;20026;-63
2022/01/02 06:01:00;;;;;;;5.80;2.10;;;;;;;18.29;60.23;101292.00;5012901;28;20037;-64
2022/01/02 06:03:25;;;;;;;4.38;1.95;;;;;;;18.29;60.42;101277.94;5013057;28;20029;-62
2022/01/02 06:05:50;;;;;;;6.57;2.17;;;;;;;18.27;60.23;101278.06;5011835;28;20021;-62
2022/01/02 06:08:15;;;;;;;5.05;1.70;;;;;;;18.27;60.08;101280.72;5013338;28;20478;-62
2022/01/02 06:10:41;;;;;;;6.65;1.88;;;;;;;18.27;60.23;101278.06;5016113;28;20030;-62
2022/01/02 06:13:06;;;;;;;4.78;1.90;;;;;;;18.25;60.18;101258.88;5015631;28;20034;-63
2022/01/02 06:15:32;;;;;;;7.05;2.05;;;;;;;18.27;59.85;101261.41;5016153;28;20057;-63
2022/01/02 06:17:57;;;;;;;5.00;1.98;;;;;;;18.30;59.92;101253.25;5016890;28;20154;-63
2022/01/02 06:20:23;;;;;;;5.57;1.92;;;;;;;18.34;60.14;101252.09;5015696;28;20029;-63
2022/01/02 06:22:50;;;;;;;5.13;1.63;;;;;;;18.39;60.45;101235.88;5016371;28;20041;-63
2022/01/02 06:25:15;;;;;;;6.38;2.50;;;;;;;18.43;60.10;101229.41;5016327;28;20069;-64
2022/01/02 06:27:50;;;;;;;4.47;1.70;;;;;;;18.46;59.96;101214.19;5015231;28;20466;-63
2022/01/02 06:30:15;;;;;;;6.25;1.80;;;;;;;18.50;59.94;101196.34;5016117;28;20045;-63
2022/01/02 06:32:41;;;;;;;3.67;1.58;;;;;;;18.54;59.83;101199.56;5015291;28;20022;-63
2022/01/02 06:35:07;;;;;;;5.47;2.08;;;;;;;18.57;59.98;101186.13;5016368;28;20101;-63
2022/01/02 06:37:32;;;;;;;8.07;2.00;;;;;;;18.60;60.02;101173.53;5015937;28;20045;-64
2022/01/02 06:39:57;;;;;;;4.38;1.73;;;;;;;18.63;59.69;101159.25;5015354;28;20188;-64
2022/01/02 06:42:23;;;;;;;7.50;1.70;;;;;;;18.65;59.56;101146.78;5015991;28;20022;-64
2022/01/02 06:44:48;;;;;;;4.55;1.83;;;;;;;18.68;59.68;101134.16;5015573;28;20073;-64
2022/01/02 06:47:14;;;;;;;7.63;1.90;;;;;;;18.72;59.70;101126.84;5015013;28;20486;-64
2022/01/02 06:49:41;;;;;;;5.35;1.70;;;;;;;18.75;59.80;101125.75;5015658;28;20037;-64
2022/01/02 06:52:07;;;;;;;4.53;1.58;;;;;;;18.77;59.61;101124.69;5015991;28;20076;-63
2022/01/02 06:54:41;;;;;;;5.38;1.90;;;;;;;18.79;59.54;101117.47;5014835;28;20025;-63
2022/01/02 06:57:06;;;;;;;4.78;1.70;;;;;;;18.81;59.65;101114.72;5015683;28;20413;-63
2022/01/02 06:59:32;;;;;;;5.57;1.57;;;;;;;18.83;59.60;101103.09;5015216;28;20045;-63
2022/01/02 07:01:57;;;;;;;5.43;1.70;;;;;;;18.83;59.43;101099.59;5015142;28;20399;-64
2022/01/02 07:04:22;;;;;;;5.87;1.80;;;;;;;18.89;59.76;101107.06;5015621;28;20018;-64
2022/01/02 07:06:48;;;;;;;5.40;1.67;;;;;;;18.90;59.39;101095.53;5015139;28;20275;-63
2022/01/02 07:09:13;;;;;;;4.85;1.60;;;;;;;18.92;59.34;101092.78;5014681;28;20046;-64
2022/01/02 07:11:38;;;;;;;4.65;1.80;;;;;;;18.91;59.25;101105.13;5015300;28;20026;-63
2022/01/02 07:14:04;;;;;;;4.95;1.80;;;;;;;18.94;59.26;101099.59;5015243;28;20479;-63
2022/01/02 07:16:29;;;;;;;5.07;2.08;;;;;;;18.96;59.40;101112.66;5014619;28;20038;-64
2022/01/02 07:18:54;;;;;;;4.07;1.70;;;;;;;18.97;59.16;101119.63;5015523;28;20386;-63
2022/01/02 07:21:19;;;;;;;5.35;1.48;;;;;;;18.98;59.12;101116.88;5014505;28;20038;-63
2022/01/02 07:23:45;;;;;;;4.70;1.60;;;;;;;18.99;59.12;101123.84;5014319;28;20083;-64
2022/01/02 07:26:10;;;;;;;4.68;1.50;;;;;;;19.01;59.06;101107.88;5014983;28;20054;-62
2022/01/02 07:28:38;;;;;;;5.10;1.47;;;;;;;19.02;59.19;101091.88;5014619;28;20022;-64
2022/01/02 07:31:03;;;;;;;5.38;1.50;;;;;;;19.03;59.22;101088.28;5014067;28;20444;-62
2022/01/02 07:33:29;;;;;;;7.07;1.93;;;;;;;19.05;59.05;101076.75;5015217;28;20117;-64
2022/01/02 07:35:54;;;;;;;4.13;1.38;;;;;;;19.03;55.43;101077.72;5014211;28;20295;-66
2022/01/02 07:38:19;;;;;;;6.77;2.00;;;;;;;18.95;56.78;101082.78;5015009;28;20034;-64
2022/01/02 07:40:45;;;;;;;5.10;1.60;;;;;;;18.93;58.28;101103.22;5014609;28;20275;-64
2022/01/02 07:43:10;;;;;;;4.22;1.88;;;;;;;18.96;58.92;101091.53;5014045;28;20360;-64
2022/01/02 07:45:35;;;;;;;4.20;1.88;;;;;;;18.97;58.82;101077.38;5014655;28;20038;-63
2022/01/02 07:48:00;;;;;;;7.78;1.77;;;;;;;19.02;58.90;101101.63;5014919;28;20017;-63
2022/01/02 07:50:26;;;;;;;5.90;1.50;;;;;;;19.05;58.98;101098.72;5013855;28;20036;-64
2022/01/02 07:52:54;;;;;;;5.03;1.70;;;;;;;19.09;58.96;101116.00;5014409;28;20829;-66
2022/01/02 07:55:19;;;;;;;5.47;1.35;;;;;;;19.11;58.95;101124.66;5014523;28;20026;-66
2022/01/02 07:57:45;;;;;;;3.67;1.58;;;;;;;19.14;58.97;101131.50;5013444;28;20061;-64
2022/01/02 08:00:11;;;;;;;4.10;1.40;;;;;;;19.13;58.46;101120.06;5014737;28;20041;-65
2022/01/02 08:02:36;;;;;;;5.07;1.80;;;;;;;19.15;58.94;101143.72;5014318;28;20440;-65
2022/01/02 08:05:02;;;;;;;7.40;1.60;;;;;;;19.17;59.19;101115.41;5014055;28;20049;-65
2022/01/02 08:07:27;;;;;;;4.07;1.40;;;;;;;19.23;59.21;101104.31;5014589;28;20294;-65
2022/01/02 08:09:52;;;;;;;4.80;1.58;;;;;;;19.29;59.06;101109.09;5014168;28;20036;-65
2022/01/02 08:12:17;;;;;;;5.10;1.50;;;;;;;19.37;58.74;101124.31;5013944;28;20427;-64
2022/01/02 08:14:42;;;;;;;6.00;1.53;;;;;;;19.44;59.07;101128.16;5014374;28;20295;-65
2022/01/02 08:17:08;;;;;;;5.67;1.77;;;;;;;19.53;59.06;101131.81;5014409;28;20029;-66
2022/01/02 08:19:33;;;;;;;5.23;1.77;;;;;;;19.58;58.51;101133.13;5013023;28;20271;-66
2022/01/02 08:21:58;;;;;;;5.67;2.33;;;;;;;19.63;58.01;101132.75;5014772;28;20315;-68
2022/01/02 08:24:23;;;;;;;5.95;1.70;;;;;;;19.73;58.19;101143.41;5014436;28;20746;-66
2022/01/02 08:26:49;;;;;;;8.32;1.73;;;;;;;19.77;57.81;101134.25;5013033;28;20107;-65
2022/01/02 08:29:14;;;;;;;5.30;1.40;;;;;;;19.84;57.70;101119.56;5014224;28;20401;-65
2022/01/02 08:31:40;;;;;;;4.93;1.67;;;;;;;19.89;57.93;101103.31;5013906;28;20092;-67
2022/01/02 08:34:06;;;;;;;8.18;1.98;;;;;;;19.93;57.62;101139.09;5013543;28;20288;-67
2022/01/02 08:36:31;;;;;;;5.80;1.95;;;;;;;19.93;57.53;101132.03;5013864;28;20041;-68
2022/01/02 08:38:56;;;;;;;5.47;1.67;;;;;;;19.98;57.65;101112.25;5013823;28;20033;-68
2022/01/02 08:41:22;;;;;;;6.07;1.83;;;;;;;20.02;57.73;101116.34;5014370;28;20085;-68
2022/01/02 08:43:47;;;;;;;4.80;1.63;;;;;;;20.03;57.35;101118.84;5014317;28;20025;-68
2022/01/02 08:46:13;;;;;;;7.25;2.10;;;;;;;20.09;57.20;101133.34;5013743;28;20080;-69
2022/01/02 08:48:38;;;;;;;6.18;2.20;;;;;;;20.09;56.74;101128.91;5013590;28;20026;-69
2022/01/02 08:51:07;;;;;;;6.43;1.80;;;;;;;20.13;57.50;101133.94;5013702;28;20045;-69
2022/01/02 08:53:34;;;;;;;7.90;2.38;;;;;;;20.17;58.31;101143.28;5012852;28;20033;-70
2022/01/02 08:56:00;;;;;;;6.38;2.33;;;;;;;20.17;57.72;101138.84;5013505;28;20026;-71
2022/01/02 08:58:25;;;;;;;8.52;2.47;;;;;;;20.14;57.76;101139.09;5013893;28;20038;-68
2022/01/02 09:00:51;;;;;;;7.27;2.37;;;;;;;20.17;57.75;101146.78;5012714;28;20038;-67
2022/01/02 09:03:16;;;;;;;10.57;2.58;;;;;;;20.19;58.27;101142.19;5013663;28;20283;-69
2022/01/02 09:05:42;;;;;;;9.38;2.78;;;;;;;20.21;57.91;101127.00;5013582;28;20068;-75
2022/01/02 09:08:07;;;;;;;6.18;2.40;;;;;;;20.21;57.84;101131.47;5012832;28;20034;-71
2022/01/02 09:10:32;;;;;;;7.85;2.55;;;;;;;20.19;57.68;101126.31;5012860;28;20037;-67
2022/01/02 09:12:58;;;;;;;9.68;2.67;;;;;;;20.18;57.72;101121.97;5013410;28;20056;-69
2022/01/02 09:15:23;;;;;;;6.28;2.30;;;;;;;20.18;57.44;101123.78;5012841;28;20065;-72
2022/01/02 09:17:48;;;;;;;7.20;2.42;;;;;;;20.16;57.30;101123.94;5013109;28;20065;-71
2022/01/02 09:20:14;;;;;;;8.73;2.47;;;;;;;20.14;57.49;101127.66;5013731;28;20038;-68
2022/01/02 09:22:40;;;;;;;4.85;2.08;;;;;;;20.13;57.34;101113.59;5017196;28;20644;-69
2022/01/02 09:25:08;;;;;;;9.00;2.78;;;;;;;20.14;57.06;101117.06;5015687;28;20125;-68
2022/01/02 09:27:35;;;;;;;6.63;2.40;;;;;;;20.13;57.04;101126.84;5017085;28;20384;-68
2022/01/02 09:30:02;;;;;;;7.85;2.40;;;;;;;20.14;57.12;101125.00;5014843;28;20100;-70
2022/01/02 09:32:28;;;;;;;6.60;2.45;;;;;;;20.13;56.78;101124.19;5013680;28;20036;-72
2022/01/02 09:34:53;;;;;;;8.40;2.97;;;;;;;20.10;57.27;101138.50;5015360;28;20366;-69
2022/01/02 09:37:18;;;;;;;5.57;2.47;;;;;;;20.11;57.12;101142.00;5020899;28;20062;-68
2022/01/02 09:39:43;;;;;;;5.78;2.38;;;;;;;20.12;57.22;101130.44;5021096;28;20769;-70
2022/01/02 09:42:11;;;;;;;8.20;2.47;;;;;;;20.10;55.79;101125.28;5016822;28;20473;-69
2022/01/02 09:44:36;;;;;;;5.80;2.47;;;;;;;20.08;56.32;101132.50;5014472;28;20287;-70
2022/01/02 09:47:02;;;;;;;8.93;2.67;;;;;;;20.07;56.64;101138.75;5015550;28;20029;-68
2022/01/02 09:49:30;;;;;;;6.90;2.45;;;;;;;20.08;57.01;101134.34;5013208;28;20032;-69
2022/01/02 09:51:58;;;;;;;7.80;2.70;;;;;;;20.07;57.08;101156.47;5013118;28;20044;-69
2022/01/02 09:54:24;;;;;;;7.90;2.70;;;;;;;20.06;57.05;101147.69;5013073;28;20034;-69
2022/01/02 09:56:49;;;;;;;5.65;2.40;;;;;;;20.04;56.85;101148.78;5012138;28;20433;-67
2022/01/02 09:59:17;;;;;;;8.40;2.70;;;;;;;20.00;56.89;101152.66;5012831;28;20038;-72
2022/01/02 10:01:45;;;;;;;10.18;2.63;;;;;;;19.97;56.82;101137.88;5012665;28;20030;-69
2022/01/02 10:04:11;;;;;;;7.10;2.22;;;;;;;19.97;57.18;101150.28;5012367;28;20022;-66
2022/01/02 10:06:46;;;;;;;9.65;2.70;;;;;;;20.00;56.83;101150.03;5013707;28;20041;-67
2022/01/02 10:09:16;;;;;;;7.28;2.47;;;;;;;20.02;56.61;101153.38;5014112;28;20451;-67
2022/01/02 10:11:42;;;;;;;7.30;2.60;;;;;;;20.01;56.55;101165.78;5011937;28;20064;-67
2022/01/02 10:14:10;;;;;;;6.35;2.53;;;;;;;19.98;56.90;101154.59;5012973;28;20074;-67
2022/01/02 10:16:40;;;;;;;5.80;2.38;;;;;;;19.97;56.52;101171.44;5012640;28;20022;-68
2022/01/02 10:19:29;;;;;;;5.32;2.70;;;;;;;19.95;56.79;101163.63;5012162;28;20056;-69
2022/01/02 10:22:06;;;;;;;9.25;2.38;;;;;;;19.94;56.65;101151.38;5013234;28;20109;-68
2022/01/02 10:24:40;;;;;;;6.35;2.58;;;;;;;19.97;57.17;101156.41;5013351;28;20064;-66
2022/01/02 10:27:19;;;;;;;5.53;2.55;;;;;;;19.99;56.83;101143.88;5012982;28;20787;-65
2022/01/02 10:29:46;;;;;;;8.68;2.90;;;;;;;20.01;56.77;101149.03;5012340;28;20038;-68
2022/01/02 10:32:32;;;;;;;6.72;2.40;;;;;;;19.96;56.62;101144.13;5012054;28;20029;-68
2022/01/02 10:35:17;;;;;;;8.38;2.50;;;;;;;19.93;56.57;101153.19;5012381;28;20502;-68
2022/01/02 10:37:50;;;;;;;6.00;2.60;;;;;;;19.89;56.75;101125.31;5012466;28;20377;-69
2022/01/02 10:40:35;;;;;;;6.18;2.55;;;;;;;19.91;56.83;101131.28;5011974;28;20053;-66
2022/01/02 10:43:03;;;;;;;8.50;2.40;;;;;;;19.93;56.89;101142.59;5013129;28;20030;-69
2022/01/02 10:45:40;;;;;;;7.50;2.83;;;;;;;19.97;56.80;101142.34;5013008;28;20026;-66
2022/01/02 10:48:12;;;;;;;7.38;2.42;;;;;;;19.98;56.68;101136.06;5012024;28;20029;-69
2022/01/02 10:50:39;;;;;;;6.03;2.50;;;;;;;20.00;56.75;101145.56;5012035;28;20551;-69
2022/01/02 10:53:16;;;;;;;6.68;2.50;;;;;;;20.02;56.83;101140.97;5011982;28;20034;-67
2022/01/02 10:55:46;;;;;;;8.40;2.47;;;;;;;20.02;56.67;101132.19;5013717;28;20018;-67
2022/01/02 10:58:12;;;;;;;8.10;2.60;;;;;;;20.02;56.77;101130.38;5015998;28;20030;-68
2022/01/02 11:00:38;;;;;;;5.63;2.60;;;;;;;20.01;56.72;101127.88;5015682;28;20105;-68
2022/01/02 11:03:06;;;;;;;6.55;2.28;;;;;;;20.01;57.07;101135.81;5016049;28;20097;-67
2022/01/02 11:05:34;;;;;;;5.38;2.13;;;;;;;20.01;56.89;101144.59;5015713;28;20037;-68
2022/01/02 11:08:02;;;;;;;7.38;2.53;;;;;;;20.00;56.81;101129.69;5015115;28;20029;-68
2022/01/02 11:10:30;;;;;;;6.93;2.33;;;;;;;19.98;57.09;101129.00;5015701;28;20037;-70
2022/01/02 11:12:57;;;;;;;6.25;2.40;;;;;;;19.97;56.68;101139.69;5015780;28;20053;-68
2022/01/02 11:15:27;;;;;;;5.65;2.65;;;;;;;19.96;57.01;101122.13;5015060;28;20497;-68
2022/01/02 11:17:53;;;;;;;5.78;2.40;;;;;;;19.94;56.66;101131.03;5015653;28;20038;-67
2022/01/02 11:20:21;;;;;;;7.97;2.42;;;;;;;19.94;57.01;101123.09;5014811;28;20390;-70
2022/01/02 11:22:58;;;;;;;7.60;2.50;;;;;;;19.96;56.76;101120.31;5015182;28;20036;-70
2022/01/02 11:25:39;;;;;;;5.65;2.58;;;;;;;19.98;56.87;101122.84;5015541;28;20046;-69
2022/01/02 11:28:13;;;;;;;8.15;2.40;;;;;;;19.96;56.83;101127.44;5014753;28;20501;-67
2022/01/02 11:30:40;;;;;;;4.85;2.15;;;;;;;19.98;56.93;101138.72;5015423;28;20033;-69
2022/01/02 11:33:19;;;;;;;4.03;1.90;;;;;;;19.98;57.12;101144.88;5015921;28;20029;-69